JP-0007 weather

Oitakenou Airport
Bungo-ono, Ōita Prefecture, Japan

Public forecast

Using degrees Celsius for public forecast. Weather courtesy of forecast.io.

METAR (pilot weather report)

Report is more than 2 hours old.

Closest report is Oita Airport, 29.6 nm (54.8 km) NNE. Retrieved 2019/05/19 13:00 UTC (5 hours ago):

RJFO 191300Z 16010KT 9999 FEW020 BKN045 BKN120 19/18 Q1012

TAF (pilot weather forecast)

Closest forecast is Oita Airport, 29.6 nm (54.8 km) NNE. Retrieved 2019/05/19 18:00 UTC (21 minutes ago):

TAF RJFO 191713Z 1918/2100 13011KT 9000 -SHRA FEW008 SCT015 BKN020 TEMPO 1919/2004 3000 -SHRA BR FEW003 BKN005 BKN008 TEMPO 2004/2009 3000 SHRA BR FEW003 BKN005 BKN008 BECMG 2006/2009 30011KT